Time;durP1;ratioP1;P1;durP2;ratioP2;P2;SDS_P1;SDS_P2;PMS_P1;PMS_P2;Temp;Humidity;BMP_temperature;BMP_pressure;BME280_temperature;BME280_humidity;BME280_pressure;Samples;Min_cycle;Max_cycle;Signal;HPM_P1;HPM_P2
2022/12/15 00:40:40;;;;;;;42.93;20.80;;;;;;;-8.76;89.69;100535.56;5004285;28;21024;-73
2022/12/15 00:43:10;;;;;;;47.50;23.07;;;;;;;-8.72;89.93;100521.84;4989076;28;20450;-73
2022/12/15 00:48:21;;;;;;;43.53;21.87;;;;;;;-8.52;90.26;100520.38;5009673;28;20525;-73
2022/12/15 00:50:52;;;;;;;45.17;22.07;;;;;;;-8.56;90.62;100524.94;5010904;28;20950;-74
2022/12/15 01:20:38;;;;;;;39.93;21.03;;;;;;;-7.88;93.55;100526.78;5006046;28;20502;-75
2022/12/15 01:23:03;;;;;;;48.10;22.20;;;;;;;-7.88;93.05;100547.50;5007855;28;20441;-75
2022/12/15 01:25:29;;;;;;;43.20;23.43;;;;;;;-7.85;93.44;100544.41;5009987;28;20589;-75
2022/12/15 01:27:54;;;;;;;43.90;22.80;;;;;;;-7.83;93.52;100551.25;5007357;28;20195;-74
2022/12/15 01:30:23;;;;;;;44.70;23.53;;;;;;;-7.81;93.21;100539.84;5012332;28;20215;-74
2022/12/15 01:32:49;;;;;;;43.47;22.37;;;;;;;-7.78;93.39;100547.53;5005336;28;20693;-74
2022/12/15 01:35:16;;;;;;;43.57;22.53;;;;;;;-7.74;93.36;100537.13;5004889;28;20462;-75
2022/12/15 01:37:43;;;;;;;40.50;22.37;;;;;;;-7.73;93.01;100546.34;5007265;28;20442;-75
2022/12/15 01:42:57;;;;;;;40.70;22.47;;;;;;;-7.72;92.56;100553.03;5007809;28;20461;-74
2022/12/15 01:45:22;;;;;;;45.73;24.37;;;;;;;-7.73;92.55;100551.31;4991991;28;20453;-74
2022/12/15 01:47:48;;;;;;;43.90;22.83;;;;;;;-7.71;92.83;100539.88;5004863;28;20190;-74
2022/12/15 01:50:15;;;;;;;43.40;23.10;;;;;;;-7.70;92.31;100529.19;5007834;28;20773;-75
2022/12/15 01:52:41;;;;;;;41.57;22.40;;;;;;;-7.67;92.63;100528.56;4992186;28;20481;-75
2022/12/15 01:55:07;;;;;;;45.33;23.23;;;;;;;-7.66;92.96;100526.22;4992371;28;20458;-74
2022/12/15 01:57:35;;;;;;;39.50;21.67;;;;;;;-7.69;93.09;100542.50;5006121;28;20525;-74
2022/12/15 02:00:03;;;;;;;44.50;22.87;;;;;;;-7.71;93.09;100537.38;4975707;28;20832;-74
2022/12/15 02:02:34;;;;;;;44.60;23.83;;;;;;;-7.63;93.36;100543.88;4992054;28;20435;-74
2022/12/15 02:05:01;;;;;;;42.40;22.40;;;;;;;-7.64;93.33;100551.19;4991270;28;20438;-74
2022/12/15 02:07:26;;;;;;;41.17;22.33;;;;;;;-7.66;93.31;100547.69;4987848;28;21010;-74
2022/12/15 02:09:56;;;;;;;45.07;21.90;;;;;;;-7.68;93.11;100555.03;4986635;28;20552;-75
2022/12/15 02:12:37;;;;;;;45.37;23.03;;;;;;;-7.63;92.99;100560.38;4984975;28;20210;-75
2022/12/15 02:15:24;;;;;;;41.70;21.60;;;;;;;-7.68;93.13;100556.66;5006863;28;20438;-75
2022/12/15 02:18:12;;;;;;;41.77;21.30;;;;;;;-7.73;92.79;100550.41;5000358;28;20449;-74
2022/12/15 02:20:50;;;;;;;41.40;22.63;;;;;;;-7.69;93.10;100558.25;5015905;23;20498;-75
2022/12/15 02:23:32;;;;;;;42.83;20.63;;;;;;;-7.69;93.37;100553.28;4983358;28;21015;-75
2022/12/15 02:26:13;;;;;;;41.70;20.60;;;;;;;-7.68;92.93;100554.16;4985891;28;21087;-75
2022/12/15 02:28:48;;;;;;;40.50;20.70;;;;;;;-7.69;92.73;100553.28;4988800;28;20457;-75
2022/12/15 02:34:29;;;;;;;39.80;20.77;;;;;;;-7.69;92.66;100569.81;4987786;28;20481;-76
2022/12/15 02:37:18;;;;;;;38.27;20.70;;;;;;;-7.74;92.47;100569.41;4970514;28;20850;-75
2022/12/15 02:39:44;;;;;;;43.33;21.77;;;;;;;-7.80;91.88;100572.97;4989097;28;20444;-75
2022/12/15 02:42:10;;;;;;;40.77;21.00;;;;;;;-7.79;92.11;100568.16;4989990;28;20458;-75
2022/12/15 02:44:35;;;;;;;40.63;20.37;;;;;;;-7.78;91.79;100574.84;4960953;28;20189;-75
2022/12/15 02:47:21;;;;;;;47.87;21.93;;;;;;;-7.78;91.58;100569.03;4965235;28;20484;-75
2022/12/15 02:50:06;;;;;;;41.60;20.33;;;;;;;-7.81;91.15;100559.72;4968633;28;20645;-72
2022/12/15 02:52:50;;;;;;;37.97;21.17;;;;;;;-7.83;91.29;100573.59;4988733;28;20868;-75
2022/12/15 02:55:25;;;;;;;41.97;20.03;;;;;;;-7.85;90.86;100565.16;4981464;28;20530;-74
2022/12/15 02:58:13;;;;;;;42.97;21.40;;;;;;;-7.90;91.51;100566.38;4983926;28;20457;-75
2022/12/15 03:00:44;;;;;;;190.87;43.80;;;;;;;-7.97;90.81;100574.00;4989066;28;20520;-75
2022/12/15 03:03:12;;;;;;;54.17;24.57;;;;;;;-7.97;90.25;100578.13;4967314;28;20500;-73
2022/12/15 03:05:38;;;;;;;40.13;22.03;;;;;;;-7.97;90.58;100575.66;4981995;28;20532;-74
2022/12/15 03:08:03;;;;;;;51.13;24.13;;;;;;;-8.03;90.36;100590.00;4952258;28;20475;-72
2022/12/15 03:10:29;;;;;;;41.93;22.00;;;;;;;-8.06;90.14;100593.06;4981459;28;20297;-73
2022/12/15 03:12:54;;;;;;;40.20;20.83;;;;;;;-8.00;90.41;100586.19;4966455;28;20280;-73
2022/12/15 03:15:20;;;;;;;44.47;21.47;;;;;;;-8.01;90.75;100581.09;4971333;28;20284;-74
2022/12/15 03:17:46;;;;;;;41.10;19.97;;;;;;;-7.98;90.39;100577.25;4982943;28;20198;-73
2022/12/15 03:20:11;;;;;;;41.93;20.13;;;;;;;-8.03;90.67;100573.50;4969637;28;20231;-73
2022/12/15 03:22:37;;;;;;;39.63;21.77;;;;;;;-8.02;91.42;100579.34;4987796;28;20575;-73
2022/12/15 03:25:04;;;;;;;44.00;21.67;;;;;;;-8.08;91.58;100574.72;4986582;28;20197;-73
2022/12/15 03:27:29;;;;;;;38.60;21.57;;;;;;;-8.02;91.30;100576.88;4953142;28;20984;-72
2022/12/15 03:29:55;;;;;;;42.87;21.47;;;;;;;-7.99;91.46;100574.63;4973448;28;20453;-72
2022/12/15 03:32:21;;;;;;;38.53;19.57;;;;;;;-7.99;91.50;100567.19;4988422;28;20205;-72
2022/12/15 03:34:46;;;;;;;38.10;19.87;;;;;;;-8.03;91.34;100568.53;4988257;28;20925;-73
2022/12/15 03:37:12;;;;;;;39.77;20.97;;;;;;;-8.04;91.61;100566.78;4986301;28;20209;-73
2022/12/15 03:39:37;;;;;;;36.97;20.03;;;;;;;-8.09;91.65;100570.50;4955272;28;20288;-73
2022/12/15 03:42:03;;;;;;;37.33;19.80;;;;;;;-8.09;91.84;100563.03;4978639;28;20215;-73
2022/12/15 03:44:28;;;;;;;40.13;20.83;;;;;;;-8.08;92.06;100556.44;4981534;28;20210;-72
2022/12/15 03:46:54;;;;;;;38.70;18.53;;;;;;;-8.01;91.86;100554.63;4983168;28;20214;-73
2022/12/15 03:49:20;;;;;;;35.63;19.13;;;;;;;-7.97;91.91;100559.13;4984874;28;20199;-73
2022/12/15 03:51:46;;;;;;;36.97;20.63;;;;;;;-7.99;91.91;100565.56;4983845;28;20222;-74
2022/12/15 03:54:12;;;;;;;37.20;19.43;;;;;;;-8.03;91.42;100565.16;4980824;28;20481;-73
2022/12/15 03:56:38;;;;;;;36.43;18.57;;;;;;;-8.07;91.19;100570.63;4966484;28;20189;-73
2022/12/15 03:59:03;;;;;;;36.50;19.07;;;;;;;-8.14;91.08;100575.78;4964708;28;20556;-74
2022/12/15 04:01:32;;;;;;;36.90;19.47;;;;;;;-8.13;91.17;100570.06;4966963;28;20769;-73
2022/12/15 04:03:58;;;;;;;37.50;18.40;;;;;;;-8.15;90.90;100574.06;4985590;28;20616;-73
2022/12/15 04:06:24;;;;;;;40.20;19.30;;;;;;;-8.17;91.14;100576.41;4954923;28;20503;-74
2022/12/15 04:08:49;;;;;;;36.97;18.67;;;;;;;-8.17;90.36;100573.03;4967545;28;20442;-73
2022/12/15 04:11:15;;;;;;;33.53;18.50;;;;;;;-8.22;90.45;100586.69;4968482;28;20283;-73
2022/12/15 04:13:41;;;;;;;34.23;18.87;;;;;;;-8.26;90.11;100580.59;4969775;28;20211;-73
2022/12/15 04:16:06;;;;;;;35.17;18.13;;;;;;;-8.23;90.36;100592.41;4985520;28;20206;-73
2022/12/15 04:18:32;;;;;;;34.30;18.37;;;;;;;-8.27;89.75;100596.22;4989780;28;20569;-73
2022/12/15 04:20:57;;;;;;;35.87;17.97;;;;;;;-8.30;89.76;100603.38;4989908;28;20259;-73
2022/12/15 04:23:23;;;;;;;29.23;16.90;;;;;;;-8.33;89.56;100595.69;4973490;28;20205;-73
2022/12/15 05:31:57;;;;;;;41.13;19.50;;;;;;;-8.22;91.49;100631.34;4976983;28;20482;-73
2022/12/15 05:34:31;;;;;;;32.40;17.60;;;;;;;-8.23;91.37;100662.78;4970886;28;20476;-73
2022/12/15 05:36:58;;;;;;;39.23;19.20;;;;;;;-8.26;91.53;100652.56;4982255;28;20446;-73
2022/12/15 05:39:25;;;;;;;38.47;19.53;;;;;;;-8.21;91.92;100650.50;4981044;28;20440;-75
2022/12/15 05:41:51;;;;;;;34.07;17.57;;;;;;;-8.19;92.29;100653.94;4968791;28;20514;-72
2022/12/15 05:44:17;;;;;;;35.37;18.27;;;;;;;-8.14;92.49;100653.63;4986032;28;20495;-71
2022/12/15 05:46:43;;;;;;;40.97;20.10;;;;;;;-8.08;92.82;100659.13;4989986;28;20452;-72
2022/12/15 05:49:12;;;;;;;43.80;22.00;;;;;;;-8.04;92.75;100653.69;4971019;28;20201;-72
2022/12/15 05:51:39;;;;;;;41.50;22.57;;;;;;;-8.04;92.95;100648.72;4971863;28;20265;-75
2022/12/15 05:54:08;;;;;;;43.43;21.90;;;;;;;-8.01;93.05;100648.97;4985479;28;20485;-72
2022/12/15 05:56:35;;;;;;;32.63;18.47;;;;;;;-8.00;92.92;100652.34;4986572;28;20443;-72
2022/12/15 05:59:00;;;;;;;32.43;17.40;;;;;;;-7.96;92.96;100655.25;4969755;28;20997;-72
2022/12/15 06:01:29;;;;;;;33.87;17.67;;;;;;;-7.96;93.28;100662.69;4972014;28;20479;-72
2022/12/15 06:03:55;;;;;;;30.43;16.50;;;;;;;-7.99;93.35;100654.97;4986650;28;20195;-75
2022/12/15 06:06:20;;;;;;;32.50;17.50;;;;;;;-7.98;93.49;100665.75;4989492;28;21026;-73
2022/12/15 06:08:46;;;;;;;32.47;18.00;;;;;;;-7.94;93.50;100665.28;4985049;28;20290;-74
2022/12/15 06:11:14;;;;;;;30.33;16.03;;;;;;;-7.95;93.78;100671.88;4986807;28;20212;-72
2022/12/15 06:13:39;;;;;;;29.27;15.93;;;;;;;-8.02;93.38;100683.63;4972635;28;20391;-74
2022/12/15 06:16:15;;;;;;;32.83;16.43;;;;;;;-7.98;93.62;100685.59;4957899;28;20538;-72
2022/12/15 06:18:43;;;;;;;31.93;17.17;;;;;;;-7.99;93.39;100686.34;4968337;28;20194;-70
2022/12/15 06:21:12;;;;;;;25.77;15.93;;;;;;;-7.95;93.41;100680.91;4981747;28;20512;-72
2022/12/15 06:23:38;;;;;;;36.03;16.80;;;;;;;-8.00;92.99;100675.56;4984393;28;20528;-72
2022/12/15 06:26:25;;;;;;;31.83;16.40;;;;;;;-7.95;93.27;100673.47;4966538;28;21027;-71
2022/12/15 06:28:53;;;;;;;38.77;18.47;;;;;;;-7.96;93.20;100684.16;4981324;28;20508;-74
2022/12/15 06:31:21;;;;;;;34.13;17.60;;;;;;;-8.01;92.98;100685.34;4985429;28;20477;-72
2022/12/15 06:33:48;;;;;;;29.37;17.77;;;;;;;-8.02;92.96;100691.91;4970066;28;20557;-71
2022/12/15 06:36:16;;;;;;;29.70;18.33;;;;;;;-8.04;92.56;100690.03;4982321;28;20527;-72
2022/12/15 06:38:42;;;;;;;34.03;18.60;;;;;;;-8.04;92.72;100690.03;4986413;28;20554;-71
2022/12/15 06:41:13;;;;;;;36.63;17.63;;;;;;;-8.05;92.62;100696.63;4987357;28;20535;-73
2022/12/15 06:43:39;;;;;;;30.93;17.53;;;;;;;-8.10;92.13;100692.88;4985713;28;20485;-74
2022/12/15 06:46:05;;;;;;;36.23;18.70;;;;;;;-8.01;92.46;100702.72;4958219;28;20443;-74
2022/12/15 06:48:30;;;;;;;37.00;19.77;;;;;;;-8.02;92.52;100705.97;4988898;28;20490;-71
2022/12/15 06:51:01;;;;;;;39.20;18.43;;;;;;;-8.06;92.34;100701.47;4987219;28;20470;-72
2022/12/15 06:53:26;;;;;;;31.37;16.90;;;;;;;-8.05;92.44;100711.53;4987265;28;20220;-73
2022/12/15 06:55:51;;;;;;;38.20;19.80;;;;;;;-7.98;92.37;100718.75;4986766;28;20476;-72
2022/12/15 06:58:17;;;;;;;34.17;17.50;;;;;;;-8.04;92.26;100715.75;4971694;28;20290;-72
2022/12/15 07:00:44;;;;;;;32.93;16.93;;;;;;;-8.06;92.14;100711.38;4969179;28;20253;-72
2022/12/15 07:03:16;;;;;;;29.03;16.17;;;;;;;-8.09;92.16;100716.06;4982568;28;20628;-70
2022/12/15 07:05:43;;;;;;;30.10;16.00;;;;;;;-8.06;91.98;100714.72;4980698;28;20478;-72
2022/12/15 07:08:14;;;;;;;30.90;16.27;;;;;;;-8.05;92.59;100718.97;4983400;28;20508;-70
2022/12/15 07:10:41;;;;;;;30.73;16.13;;;;;;;-7.99;92.38;100721.09;4970793;28;20885;-69
2022/12/15 07:13:12;;;;;;;29.97;15.83;;;;;;;-7.95;92.34;100720.66;4979144;28;20486;-72
2022/12/15 07:15:39;;;;;;;30.17;16.57;;;;;;;-7.93;92.69;100736.56;4971217;28;20460;-72
2022/12/15 07:18:05;;;;;;;33.00;16.50;;;;;;;-7.98;92.49;100738.63;4969371;28;20476;-72
2022/12/15 07:20:31;;;;;;;31.23;15.87;;;;;;;-7.97;92.34;100739.50;4952180;28;20488;-73
2022/12/15 07:22:57;;;;;;;31.53;16.60;;;;;;;-7.92;92.19;100744.13;4982647;28;20806;-72
2022/12/15 07:25:23;;;;;;;30.07;16.60;;;;;;;-7.95;92.19;100743.88;4986961;28;20438;-73
2022/12/15 07:27:48;;;;;;;27.13;16.07;;;;;;;-7.95;92.03;100757.88;4967892;28;20199;-71
2022/12/15 07:30:16;;;;;;;30.93;16.87;;;;;;;-7.95;91.88;100757.88;4985795;28;20228;-72
2022/12/15 07:32:43;;;;;;;29.80;15.43;;;;;;;-7.97;91.24;100759.38;4970904;28;20556;-72
2022/12/15 07:35:09;;;;;;;30.40;16.60;;;;;;;-7.98;91.38;100767.53;4985455;28;20456;-73
2022/12/15 07:37:35;;;;;;;30.73;18.10;;;;;;;-7.95;90.92;100775.28;4985897;28;20460;-73
2022/12/15 07:40:02;;;;;;;29.47;16.40;;;;;;;-7.90;90.86;100776.56;4968880;28;20502;-73
2022/12/15 07:42:28;;;;;;;32.13;18.17;;;;;;;-7.77;91.41;100792.69;4982106;28;20447;-73
2022/12/15 07:44:54;;;;;;;27.67;16.80;;;;;;;-7.66;92.11;100786.19;4986920;28;20505;-72
2022/12/15 07:47:19;;;;;;;34.03;17.80;;;;;;;-7.63;92.25;100791.44;4988181;28;20453;-71
2022/12/15 07:49:45;;;;;;;32.87;17.70;;;;;;;-7.57;92.08;100785.38;4964340;28;20202;-72
2022/12/15 07:52:12;;;;;;;37.97;17.70;;;;;;;-7.52;92.70;100779.22;4973909;28;20282;-73
2022/12/15 07:54:38;;;;;;;31.50;17.17;;;;;;;-7.52;92.82;100789.16;4969588;28;20765;-72
2022/12/15 07:57:06;;;;;;;31.57;18.17;;;;;;;-7.45;92.90;100783.09;4964733;28;20457;-73
2022/12/15 07:59:33;;;;;;;29.77;16.73;;;;;;;-7.42;92.75;100786.72;4949427;28;20279;-73
2022/12/15 08:01:59;;;;;;;30.67;17.73;;;;;;;-7.37;92.91;100795.47;4971392;28;20552;-73
2022/12/15 08:04:25;;;;;;;34.43;18.50;;;;;;;-7.34;93.18;100790.75;4974502;28;20815;-72
2022/12/15 08:06:53;;;;;;;37.90;19.63;;;;;;;-7.28;92.97;100795.41;4985116;28;20438;-73
2022/12/15 08:09:18;;;;;;;40.33;19.70;;;;;;;-7.25;93.06;100804.00;4987077;28;20490;-71
2022/12/15 08:11:44;;;;;;;35.43;19.20;;;;;;;-7.15;93.07;100804.06;4972822;28;20531;-73
2022/12/15 08:14:09;;;;;;;39.23;19.53;;;;;;;-7.03;93.35;100804.25;4991215;28;20235;-73
2022/12/15 08:16:35;;;;;;;48.63;22.03;;;;;;;-6.97;93.24;100812.22;4989842;28;20202;-73
2022/12/15 08:19:02;;;;;;;45.27;22.03;;;;;;;-6.88;93.46;100813.91;4970961;28;20216;-73
2022/12/15 08:21:30;;;;;;;41.07;21.23;;;;;;;-6.81;93.55;100805.34;4992414;23;20736;-75
2022/12/15 08:23:55;;;;;;;36.13;18.63;;;;;;;-6.70;93.13;100810.50;4963949;28;20454;-73
2022/12/15 08:26:21;;;;;;;44.07;20.20;;;;;;;-6.65;93.21;100800.94;4967764;28;20545;-75
2022/12/15 08:28:46;;;;;;;41.03;21.17;;;;;;;-6.49;93.20;100808.97;4946113;28;20255;-74
2022/12/15 08:31:17;;;;;;;48.93;20.63;;;;;;;-6.38;93.24;100804.16;4928619;29;20212;-74
2022/12/15 08:33:44;;;;;;;51.70;22.00;;;;;;;-6.25;93.30;100806.03;4943737;28;20222;-74
2022/12/15 08:36:12;;;;;;;48.23;20.70;;;;;;;-6.17;92.95;100805.06;4945333;28;20445;-73
2022/12/15 08:38:39;;;;;;;47.40;20.97;;;;;;;-6.05;93.65;100818.53;4942783;28;20469;-75
2022/12/15 08:41:09;;;;;;;41.13;20.40;;;;;;;-5.89;93.47;100809.94;4943819;28;20452;-75
2022/12/15 08:43:35;;;;;;;40.37;19.17;;;;;;;-5.69;93.99;100811.56;4944047;28;20447;-74
2022/12/15 08:46:00;;;;;;;34.60;18.17;;;;;;;-5.61;93.74;100813.91;4946428;28;20491;-74
2022/12/15 08:48:26;;;;;;;32.33;17.27;;;;;;;-5.40;93.43;100819.75;4946418;28;20874;-75
2022/12/15 08:50:54;;;;;;;32.60;17.93;;;;;;;-5.16;93.36;100817.63;4951973;28;20202;-75
2022/12/15 08:53:19;;;;;;;30.23;16.63;;;;;;;-5.01;92.48;100822.97;4950442;28;20213;-75
2022/12/15 08:55:45;;;;;;;31.53;17.00;;;;;;;-4.82;92.09;100828.66;4949901;28;20455;-74
2022/12/15 08:58:10;;;;;;;29.33;16.60;;;;;;;-4.74;92.51;100828.47;4951197;28;20248;-75
2022/12/15 09:00:36;;;;;;;30.57;17.13;;;;;;;-4.63;92.26;100832.72;4950355;28;20197;-75
2022/12/15 09:03:01;;;;;;;27.30;16.20;;;;;;;-4.64;92.36;100838.47;4965881;28;20185;-74
2022/12/15 09:05:27;;;;;;;30.97;17.37;;;;;;;-4.69;92.55;100828.84;4964092;28;20702;-75
2022/12/15 09:07:54;;;;;;;32.60;18.03;;;;;;;-4.72;92.69;100838.59;4926864;28;20268;-75
2022/12/15 09:10:20;;;;;;;31.97;18.30;;;;;;;-4.73;93.44;100839.34;4947600;28;20300;-75
2022/12/15 09:12:45;;;;;;;34.33;18.90;;;;;;;-4.68;93.46;100835.59;4946181;28;20545;-73
2022/12/15 09:15:11;;;;;;;31.60;17.83;;;;;;;-4.58;93.28;100843.03;4944330;28;20208;-75
2022/12/15 09:17:36;;;;;;;30.83;17.70;;;;;;;-4.52;94.12;100838.53;4930784;28;20291;-74
2022/12/15 09:20:02;;;;;;;27.80;16.40;;;;;;;-4.52;93.83;100841.91;4946184;28;20197;-72
2022/12/15 09:22:29;;;;;;;29.70;17.50;;;;;;;-4.52;94.15;100841.03;4950751;28;20201;-73
2022/12/15 09:24:55;;;;;;;28.73;17.67;;;;;;;-4.43;94.79;100841.72;4947381;28;20516;-75
2022/12/15 09:27:20;;;;;;;33.13;18.33;;;;;;;-4.39;94.79;100848.69;4948797;28;20476;-74
2022/12/15 09:29:46;;;;;;;32.40;18.17;;;;;;;-4.24;94.99;100847.41;4945950;28;20197;-74
2022/12/15 09:32:12;;;;;;;33.33;18.07;;;;;;;-4.17;94.87;100838.00;4947977;28;20214;-74
2022/12/15 09:34:38;;;;;;;30.03;17.53;;;;;;;-4.07;94.46;100832.94;4914673;28;20246;-75
2022/12/15 09:37:04;;;;;;;34.27;19.77;;;;;;;-3.98;94.92;100840.25;4959610;28;20453;-75
2022/12/15 09:39:31;;;;;;;34.63;17.23;;;;;;;-3.80;94.82;100832.50;4948004;28;20212;-75
2022/12/15 09:41:59;;;;;;;32.87;17.97;;;;;;;-3.49;94.22;100835.66;4945254;28;20296;-76
2022/12/15 09:44:27;;;;;;;27.93;17.63;;;;;;;-3.07;93.40;100833.78;4946640;28;20551;-75
2022/12/15 09:47:12;;;;;;;28.53;16.80;;;;;;;-2.66;91.93;100830.06;4949059;28;20469;-74
2022/12/15 09:49:54;;;;;;;29.57;16.90;;;;;;;-2.51;90.57;100828.63;4943462;28;20448;-75
2022/12/15 09:52:25;;;;;;;28.00;16.33;;;;;;;-2.56;90.48;100817.44;4951713;28;20559;-72
2022/12/15 09:54:51;;;;;;;28.23;17.20;;;;;;;-2.54;90.62;100835.94;4948746;28;20216;-76
2022/12/15 09:57:25;;;;;;;25.93;16.43;;;;;;;-2.42;90.58;100839.31;4946699;28;20276;-76
2022/12/15 09:59:53;;;;;;;27.00;16.17;;;;;;;-2.34;90.46;100828.19;4947627;28;20250;-76
2022/12/15 10:03:07;;;;;;;30.23;15.83;;;;;;;-2.51;90.71;100839.53;4961210;28;20201;-76
2022/12/15 10:05:51;;;;;;;24.33;15.27;;;;;;;-2.59;91.23;100840.63;4887327;29;20823;-74
2022/12/15 10:08:17;;;;;;;27.67;16.93;;;;;;;-2.54;91.58;100845.94;4942878;28;20540;-76
2022/12/15 10:11:16;;;;;;;26.70;16.10;;;;;;;-2.53;92.36;100838.53;4947990;28;20205;-74
2022/12/15 10:14:05;;;;;;;27.87;16.47;;;;;;;-2.53;92.55;100838.53;4947091;28;20473;-75
2022/12/15 10:16:38;;;;;;;28.80;16.73;;;;;;;-2.36;92.69;100843.09;4944905;28;20453;-74
2022/12/15 10:19:21;;;;;;;28.20;17.17;;;;;;;-1.83;92.28;100836.75;4941567;28;20320;-74
2022/12/15 10:21:47;;;;;;;29.33;17.03;;;;;;;-1.30;90.62;100826.09;4940481;28;20296;-74
2022/12/15 10:24:22;;;;;;;23.83;15.70;;;;;;;-0.09;88.23;100828.03;4940589;28;20200;-72
2022/12/15 10:26:58;;;;;;;26.37;15.30;;;;;;;0.61;83.56;100828.88;4956155;28;20546;-75
2022/12/15 10:29:49;;;;;;;24.53;14.27;;;;;;;1.21;79.60;100831.47;4967776;28;20283;-72
2022/12/15 10:32:19;;;;;;;18.90;13.20;;;;;;;1.02;79.24;100824.56;4954534;28;20286;-75
2022/12/15 10:34:44;;;;;;;22.30;13.70;;;;;;;1.14;79.28;100821.84;4933711;28;20249;-75
2022/12/15 10:37:15;;;;;;;22.57;13.63;;;;;;;-0.07;81.85;100834.88;4941956;28;20605;-75
2022/12/15 10:39:43;;;;;;;23.43;15.03;;;;;;;-0.87;86.10;100830.63;4962474;28;20204;-74
2022/12/15 10:42:24;;;;;;;23.67;14.60;;;;;;;-0.75;87.89;100826.34;4961837;28;20233;-73
2022/12/15 10:44:57;;;;;;;27.73;16.57;;;;;;;-0.77;88.15;100825.41;4946412;28;20196;-75
2022/12/15 10:47:27;;;;;;;24.13;15.17;;;;;;;-0.57;88.18;100819.97;4943027;28;20212;-75
2022/12/15 10:49:53;;;;;;;25.43;14.80;;;;;;;-0.34;88.11;100813.06;4941180;28;20209;-74
2022/12/15 10:52:33;;;;;;;23.17;14.90;;;;;;;-0.11;87.30;100814.47;4942624;28;20707;-73
2022/12/15 10:54:59;;;;;;;24.63;14.13;;;;;;;0.29;85.60;100808.53;4941330;28;20271;-74
2022/12/15 10:57:27;;;;;;;19.83;13.80;;;;;;;0.57;84.88;100809.34;4959755;28;20221;-75
2022/12/15 11:00:18;;;;;;;21.13;13.80;;;;;;;0.83;83.96;100811.69;4960989;28;20296;-74
2022/12/15 11:02:43;;;;;;;21.07;13.73;;;;;;;0.83;83.26;100808.31;4938147;28;20217;-75
2022/12/15 11:05:14;;;;;;;24.50;14.63;;;;;;;0.54;83.89;100818.38;4940753;28;20197;-75
2022/12/15 11:08:13;;;;;;;21.57;14.63;;;;;;;0.10;85.55;100816.63;4938975;28;20214;-74
2022/12/15 11:13:38;;;;;;;20.03;13.63;;;;;;;-0.22;87.12;100825.53;4939846;28;20218;-74
2022/12/15 11:16:15;;;;;;;24.80;14.57;;;;;;;-0.29;87.76;100825.91;4943102;28;20292;-75
2022/12/15 11:18:52;;;;;;;25.37;15.47;;;;;;;-0.29;88.81;100834.34;4938772;28;20225;-75
2022/12/15 11:21:33;;;;;;;26.57;15.67;;;;;;;-0.27;88.30;100832.78;4954233;28;20263;-75
2022/12/15 11:24:16;;;;;;;20.20;14.30;;;;;;;-0.22;89.09;100818.84;4940176;28;20220;-76
2022/12/15 11:26:51;;;;;;;23.07;15.43;;;;;;;-0.36;89.54;100829.69;4943079;28;20287;-76
2022/12/15 11:29:54;;;;;;;22.57;15.97;;;;;;;-0.38;89.87;100831.25;4944145;28;20200;-74
2022/12/15 11:32:24;;;;;;;21.90;15.13;;;;;;;-0.41;89.78;100835.25;4938684;28;20208;-76
2022/12/15 11:34:49;;;;;;;24.57;15.63;;;;;;;-0.35;90.38;100836.50;4912513;28;20264;-75
2022/12/15 11:37:33;;;;;;;26.17;15.83;;;;;;;-0.30;90.39;100836.75;4940432;28;20241;-74
2022/12/15 11:40:17;;;;;;;25.17;16.10;;;;;;;-0.37;91.13;100835.50;4940840;28;20206;-75
2022/12/15 11:43:17;;;;;;;24.07;14.43;;;;;;;-0.35;91.20;100830.59;4963533;28;20192;-74
2022/12/15 11:46:04;;;;;;;23.60;15.50;;;;;;;-0.34;91.19;100824.78;4940929;28;20237;-72
2022/12/15 11:49:08;;;;;;;25.87;15.80;;;;;;;-0.25;91.54;100826.22;4938615;28;20364;-75
2022/12/15 11:51:39;;;;;;;27.07;16.23;;;;;;;-0.20;92.08;100819.81;4942573;28;21033;-74
2022/12/15 11:54:27;;;;;;;24.40;15.23;;;;;;;-0.11;90.96;100832.06;4945840;28;20234;-76
2022/12/15 11:57:13;;;;;;;25.60;15.23;;;;;;;0.03;90.70;100828.75;4944360;28;20193;-76
2022/12/15 11:59:41;;;;;;;23.70;14.37;;;;;;;0.17;90.62;100830.44;4943163;28;20189;-75
2022/12/15 12:02:44;;;;;;;24.17;15.10;;;;;;;0.20;90.15;100828.09;4943492;28;20293;-74
2022/12/15 12:05:39;;;;;;;25.00;15.83;;;;;;;0.16;89.82;100836.25;4942686;28;20201;-75
2022/12/15 12:08:17;;;;;;;28.60;14.70;;;;;;;0.17;91.08;100837.13;4939290;28;20225;-72
2022/12/15 12:11:11;;;;;;;21.90;15.10;;;;;;;0.23;90.60;100830.78;4942057;28;20216;-74
2022/12/15 12:14:01;;;;;;;24.17;15.60;;;;;;;0.36;90.55;100834.94;4946056;28;20224;-75
2022/12/15 12:16:53;;;;;;;26.20;15.87;;;;;;;0.47;90.63;100823.03;4938880;28;20279;-75
2022/12/15 12:19:31;;;;;;;22.87;15.33;;;;;;;0.38;90.53;100825.81;4940730;28;20202;-75
2022/12/15 12:22:23;;;;;;;22.93;15.43;;;;;;;0.38;91.10;100830.84;4939494;28;20300;-74
2022/12/15 12:25:10;;;;;;;23.30;14.40;;;;;;;0.40;91.87;100831.81;4941518;28;20193;-74
2022/12/15 12:27:43;;;;;;;23.63;14.87;;;;;;;0.40;91.98;100830.16;4960971;28;20217;-75
2022/12/15 12:30:16;;;;;;;22.13;14.27;;;;;;;0.46;91.26;100838.03;4944395;28;20201;-76
2022/12/15 12:32:47;;;;;;;23.50;15.20;;;;;;;0.46;91.16;100839.72;4941037;28;20213;-72
2022/12/15 12:35:26;;;;;;;23.23;15.33;;;;;;;0.45;91.44;100841.34;4920184;28;20233;-75
2022/12/15 12:38:00;;;;;;;20.47;14.33;;;;;;;0.45;92.16;100838.84;4941526;28;20221;-75
2022/12/15 12:40:55;;;;;;;21.40;14.60;;;;;;;0.47;92.07;100836.41;4945957;28;20201;-75
2022/12/15 12:43:41;;;;;;;22.13;14.27;;;;;;;0.46;91.42;100835.53;4947585;28;20610;-75
2022/12/15 12:46:19;;;;;;;21.60;14.23;;;;;;;0.48;92.50;100834.00;4944308;28;20212;-76
2022/12/15 12:48:45;;;;;;;21.67;14.60;;;;;;;0.50;93.01;100839.13;4945223;28;20251;-75
2022/12/15 12:51:20;;;;;;;17.93;14.20;;;;;;;0.54;93.01;100841.91;4941036;28;20225;-74
2022/12/15 12:53:46;;;;;;;23.00;14.73;;;;;;;0.55;92.25;100840.25;4943803;28;20275;-75
2022/12/15 12:56:34;;;;;;;25.87;15.23;;;;;;;0.59;93.03;100843.03;4945931;28;20201;-74
2022/12/15 12:59:06;;;;;;;25.13;14.73;;;;;;;0.65;93.39;100853.47;4943218;28;20252;-73
2022/12/15 13:01:34;;;;;;;19.77;14.03;;;;;;;0.76;92.75;100847.41;4944390;28;20197;-74
2022/12/15 13:04:11;;;;;;;21.67;14.43;;;;;;;1.00;91.99;100856.34;4945470;28;20201;-74
2022/12/15 13:06:39;;;;;;;21.33;14.57;;;;;;;1.06;91.25;100843.25;4942644;28;20200;-75
2022/12/15 13:09:18;;;;;;;25.93;14.43;;;;;;;1.13;91.20;100833.59;4945022;28;20221;-75
2022/12/15 13:12:03;;;;;;;28.23;14.93;;;;;;;1.26;91.05;100830.97;4946808;28;20228;-75
2022/12/15 13:14:43;;;;;;;24.67;13.80;;;;;;;1.31;90.74;100828.69;4942591;28;20233;-75
2022/12/15 13:17:15;;;;;;;25.27;14.27;;;;;;;1.41;90.94;100828.41;4943781;28;20260;-75
2022/12/15 13:20:01;;;;;;;21.40;13.67;;;;;;;2.33;88.60;100817.44;4943640;28;20193;-75
2022/12/15 13:22:30;;;;;;;20.07;12.80;;;;;;;2.68;86.82;100822.63;4938304;28;20219;-74
2022/12/15 13:24:56;;;;;;;18.87;12.67;;;;;;;2.53;85.72;100819.28;4945441;28;20189;-76
2022/12/15 13:27:22;;;;;;;18.87;10.97;;;;;;;2.52;85.34;100812.50;4944436;28;20263;-75
2022/12/15 13:30:13;;;;;;;17.60;11.97;;;;;;;2.71;84.65;100807.56;4941272;28;20564;-76
2022/12/15 13:32:43;;;;;;;18.40;11.87;;;;;;;2.25;86.17;100813.63;4930685;29;20197;-76
2022/12/15 13:35:11;;;;;;;17.77;12.60;;;;;;;2.19;87.30;100817.50;4925733;28;20249;-73
2022/12/15 13:37:49;;;;;;;16.43;11.10;;;;;;;2.88;86.08;100811.81;4941568;28;20276;-74
2022/12/15 13:40:23;;;;;;;16.50;12.00;;;;;;;2.59;86.31;100814.56;4945187;28;20228;-76
2022/12/15 13:42:57;;;;;;;17.87;11.80;;;;;;;2.72;86.24;100816.03;4941447;28;20199;-76
2022/12/15 13:45:34;;;;;;;16.80;10.90;;;;;;;3.83;84.12;100813.81;4967246;28;20201;-76
2022/12/15 13:48:04;;;;;;;19.00;11.10;;;;;;;4.20;80.45;100807.94;4945336;28;20720;-76
2022/12/15 13:50:37;;;;;;;19.53;11.17;;;;;;;4.56;78.23;100812.03;4948299;28;20204;-75
2022/12/15 13:53:03;;;;;;;19.63;11.23;;;;;;;4.59;77.80;100811.28;4943577;28;20198;-74
2022/12/15 13:55:37;;;;;;;15.20;11.63;;;;;;;4.79;76.43;100808.78;4944071;28;20566;-77